createdAt,value
2023-01-12T00:01:59.435Z,3.13
2023-01-12T00:04:26.462Z,3.38
2023-01-12T00:06:53.902Z,3.13
2023-01-12T00:09:20.945Z,2.63
2023-01-12T00:11:47.931Z,2.88
2023-01-12T00:14:15.185Z,2.53
2023-01-12T00:16:42.283Z,2.45
2023-01-12T00:19:13.336Z,2.30
2023-01-12T00:22:02.251Z,3.03
2023-01-12T00:24:30.288Z,3.47
2023-01-12T00:26:59.209Z,3.28
2023-01-12T00:29:27.495Z,2.42
2023-01-12T00:31:56.022Z,2.88
2023-01-12T00:34:23.691Z,2.40
2023-01-12T00:36:51.430Z,2.78
2023-01-12T00:39:19.019Z,2.30
2023-01-12T00:42:04.693Z,2.30
2023-01-12T00:44:50.660Z,2.78
2023-01-12T00:47:18.502Z,2.78
2023-01-12T00:49:46.324Z,3.20
2023-01-12T00:52:29.255Z,3.25
2023-01-12T00:54:58.132Z,3.55
2023-01-12T00:57:25.452Z,3.67
2023-01-12T00:59:55.478Z,4.15
2023-01-12T01:02:23.679Z,3.05
2023-01-12T01:04:50.947Z,3.00
2023-01-12T01:07:18.751Z,1.90
2023-01-12T01:09:45.965Z,2.90
2023-01-12T01:12:13.221Z,2.20
2023-01-12T01:14:40.137Z,2.60
2023-01-12T01:17:07.067Z,2.40
2023-01-12T01:19:34.236Z,2.53
2023-01-12T01:22:01.223Z,3.38
2023-01-12T01:24:28.034Z,2.88
2023-01-12T01:26:55.021Z,2.35
2023-01-12T01:29:21.929Z,2.10
2023-01-12T01:31:48.780Z,2.65
2023-01-12T01:34:15.782Z,2.25
2023-01-12T01:36:42.957Z,2.25
2023-01-12T01:39:09.875Z,2.05
2023-01-12T01:41:37.107Z,1.90
2023-01-12T01:44:07.076Z,2.50
2023-01-12T01:46:55.891Z,1.98
2023-01-12T01:49:35.217Z,2.75
2023-01-12T01:52:14.219Z,2.25
2023-01-12T01:54:47.178Z,1.80
2023-01-12T01:57:15.656Z,1.85
2023-01-12T01:59:48.692Z,1.98
2023-01-12T02:02:18.915Z,1.80
2023-01-12T02:04:46.215Z,2.00
2023-01-12T02:07:13.456Z,2.15
2023-01-12T02:09:40.833Z,1.88
2023-01-12T02:12:26.829Z,2.20
2023-01-12T02:15:13.861Z,2.17
2023-01-12T02:18:05.450Z,2.33
2023-01-12T02:20:41.722Z,2.00
2023-01-12T02:23:48.649Z,2.22
2023-01-12T02:26:37.234Z,2.00
2023-01-12T02:29:46.095Z,2.17
2023-01-12T02:32:31.390Z,2.10
2023-01-12T02:35:27.236Z,2.20
2023-01-12T02:38:19.932Z,2.30
2023-01-12T02:41:06.335Z,2.30
2023-01-12T02:43:36.617Z,2.13
2023-01-12T02:46:14.781Z,2.25
2023-01-12T02:49:12.971Z,2.47
2023-01-12T02:51:56.596Z,2.72
2023-01-12T02:54:25.792Z,2.60
2023-01-12T02:56:56.479Z,2.60
2023-01-12T02:59:28.016Z,2.60
2023-01-12T03:02:01.354Z,2.35
2023-01-12T03:04:30.256Z,2.20
2023-01-12T03:06:57.273Z,2.03
2023-01-12T03:09:42.161Z,1.70
2023-01-12T03:12:18.632Z,2.25
2023-01-12T03:14:48.953Z,2.80
2023-01-12T03:17:28.624Z,2.08
2023-01-12T03:19:59.350Z,2.03
2023-01-12T03:22:26.509Z,2.47
2023-01-12T03:24:59.167Z,2.05
2023-01-12T03:27:30.924Z,2.40
2023-01-12T03:30:32.172Z,2.67
2023-01-12T03:32:59.215Z,2.55
2023-01-12T03:35:28.058Z,2.63
2023-01-12T03:37:59.875Z,2.60
2023-01-12T03:40:26.780Z,3.33
2023-01-12T03:43:14.218Z,2.88
2023-01-12T03:45:54.514Z,2.97
2023-01-12T03:48:29.108Z,2.88
2023-01-12T03:51:01.595Z,3.63
2023-01-12T03:53:31.195Z,3.42
2023-01-12T03:56:04.569Z,3.35
2023-01-12T03:58:35.106Z,3.63
2023-01-12T04:01:03.205Z,3.75
2023-01-12T04:03:30.259Z,4.55
2023-01-12T04:05:57.327Z,4.28
2023-01-12T04:08:24.556Z,5.68
2023-01-12T04:10:51.385Z,6.40
2023-01-12T04:13:18.284Z,6.28
2023-01-12T04:15:47.379Z,6.18
2023-01-12T04:18:14.259Z,7.90
2023-01-12T04:20:41.289Z,9.95
2023-01-12T04:23:08.420Z,9.80
2023-01-12T04:25:35.602Z,9.20
2023-01-12T04:28:03.233Z,7.70
2023-01-12T04:30:32.861Z,7.57
2023-01-12T04:33:01.180Z,7.70
2023-01-12T04:35:28.233Z,7.97
2023-01-12T04:37:55.240Z,6.68
2023-01-12T04:40:22.233Z,5.32
2023-01-12T04:43:07.488Z,4.50
2023-01-12T04:45:37.911Z,5.25
2023-01-12T04:48:07.012Z,6.00
2023-01-12T04:50:34.038Z,5.38
2023-01-12T04:53:06.504Z,5.75
2023-01-12T04:55:36.760Z,6.38
2023-01-12T04:58:04.329Z,6.10
2023-01-12T05:00:31.435Z,5.63
2023-01-12T05:03:02.589Z,12.02
2023-01-12T05:05:34.091Z,34.13
2023-01-12T05:08:21.023Z,26.80
2023-01-12T05:11:02.806Z,21.25
2023-01-12T05:13:31.386Z,18.60
2023-01-12T05:16:17.133Z,32.03
2023-01-12T05:18:45.944Z,30.40
2023-01-12T05:21:14.235Z,21.88
2023-01-12T05:23:41.750Z,37.97
2023-01-12T05:26:08.837Z,8.00
2023-01-12T05:28:38.543Z,5.05
2023-01-12T05:31:14.184Z,6.45
2023-01-12T05:33:42.606Z,6.47
2023-01-12T05:36:14.533Z,6.03
2023-01-12T05:38:41.781Z,6.38
2023-01-12T05:41:10.349Z,5.93
2023-01-12T05:43:52.415Z,7.30
2023-01-12T05:46:25.108Z,8.10
2023-01-12T05:48:53.435Z,9.35
2023-01-12T05:51:20.948Z,9.05
2023-01-12T05:53:49.210Z,10.40
2023-01-12T05:56:18.159Z,9.52
2023-01-12T05:58:58.466Z,10.40
2023-01-12T06:01:26.419Z,8.47
2023-01-12T06:03:55.740Z,12.65
2023-01-12T06:06:24.157Z,11.43
2023-01-12T06:08:52.826Z,11.52
2023-01-12T06:11:39.395Z,11.88
2023-01-12T06:17:23.101Z,11.80
2023-01-12T06:19:50.084Z,12.73
2023-01-12T06:22:18.671Z,13.43
2023-01-12T06:24:49.318Z,13.10
2023-01-12T06:27:16.703Z,10.50
2023-01-12T06:29:43.703Z,9.13
2023-01-12T06:32:10.987Z,10.75
2023-01-12T06:34:38.357Z,11.63
2023-01-12T06:37:08.286Z,22.85
2023-01-12T06:39:35.196Z,16.52
2023-01-12T06:42:21.033Z,12.30
2023-01-12T06:44:49.031Z,15.63
2023-01-12T06:49:45.932Z,13.30
2023-01-12T06:52:13.022Z,15.38
2023-01-12T06:54:40.013Z,12.93
2023-01-12T06:57:07.143Z,13.95
2023-01-12T06:59:34.237Z,11.80
2023-01-12T07:02:03.342Z,19.50
2023-01-12T07:04:31.326Z,22.20
2023-01-12T07:06:58.896Z,17.98
2023-01-12T07:09:25.839Z,16.20
2023-01-12T07:11:53.174Z,18.35
2023-01-12T07:14:20.095Z,18.48
2023-01-12T07:16:46.949Z,20.90
2023-01-12T07:19:13.983Z,22.60
2023-01-12T07:21:40.860Z,39.63
2023-01-12T07:24:07.904Z,75.07
2023-01-12T07:26:34.951Z,50.35
2023-01-12T07:29:02.339Z,33.42
2023-01-12T07:31:29.599Z,30.15
2023-01-12T07:33:56.711Z,37.95
2023-01-12T07:36:25.614Z,37.17
2023-01-12T07:38:52.701Z,29.77
2023-01-12T07:41:38.460Z,24.40
2023-01-12T07:44:09.002Z,34.08
2023-01-12T07:46:36.278Z,28.00
2023-01-12T07:49:03.558Z,27.13
2023-01-12T07:51:31.838Z,27.63
2023-01-12T07:54:02.144Z,39.28
2023-01-12T07:56:32.174Z,31.63
2023-01-12T07:59:02.739Z,24.38
2023-01-12T08:01:32.889Z,16.30
2023-01-12T08:04:00.127Z,21.90
2023-01-12T08:06:27.090Z,19.65
2023-01-12T08:08:54.888Z,31.65
2023-01-12T08:11:23.489Z,18.65
2023-01-12T08:13:55.092Z,16.13
2023-01-12T08:16:29.299Z,15.57
2023-01-12T08:19:02.043Z,15.02
2023-01-12T08:21:45.394Z,16.35
2023-01-12T08:24:20.335Z,16.15
2023-01-12T08:26:49.418Z,13.75
2023-01-12T08:29:30.870Z,15.68
2023-01-12T08:34:36.614Z,21.13
2023-01-12T08:37:06.397Z,30.45
2023-01-12T08:39:35.549Z,24.08
2023-01-12T08:42:03.264Z,21.67
2023-01-12T08:44:36.551Z,19.42
2023-01-12T08:47:16.061Z,27.92
2023-01-12T08:49:46.602Z,18.08
2023-01-12T08:52:15.862Z,18.63
2023-01-12T08:54:43.818Z,15.63
2023-01-12T08:57:11.172Z,14.57
2023-01-12T08:59:42.035Z,17.10
2023-01-12T09:02:14.691Z,16.73
2023-01-12T09:04:42.279Z,15.20
2023-01-12T09:07:11.940Z,12.68
2023-01-12T09:09:45.306Z,15.35
2023-01-12T09:12:12.332Z,14.52
2023-01-12T09:14:40.277Z,10.75
2023-01-12T09:17:08.050Z,6.90
2023-01-12T09:19:37.863Z,7.18
2023-01-12T09:22:04.814Z,6.95
2023-01-12T09:24:32.160Z,6.88
2023-01-12T09:27:01.309Z,9.00
2023-01-12T09:29:28.624Z,8.00
2023-01-12T09:31:58.749Z,3.60
2023-01-12T09:34:27.084Z,2.47
2023-01-12T09:36:56.293Z,3.80
2023-01-12T09:39:28.985Z,3.80
2023-01-12T09:42:20.559Z,5.07
2023-01-12T09:47:53.640Z,5.93
2023-01-12T09:50:29.374Z,5.88
2023-01-12T09:53:31.936Z,4.93
2023-01-12T09:56:12.621Z,5.47
2023-01-12T09:58:40.463Z,8.10
2023-01-12T10:01:20.490Z,10.95
2023-01-12T10:03:55.729Z,12.55
2023-01-12T10:06:22.884Z,7.30
2023-01-12T10:08:57.401Z,7.65
2023-01-12T10:11:39.852Z,6.20
2023-01-12T10:14:09.524Z,7.38
2023-01-12T10:16:54.836Z,6.03
2023-01-12T10:19:35.040Z,9.05
2023-01-12T10:22:37.067Z,12.13
2023-01-12T10:25:23.637Z,18.67
2023-01-12T10:27:53.630Z,12.60
2023-01-12T10:30:38.868Z,12.02
2023-01-12T10:33:16.725Z,13.05
2023-01-12T10:35:59.830Z,6.75
2023-01-12T10:38:36.157Z,7.53
2023-01-12T10:41:18.808Z,8.65
2023-01-12T10:44:15.174Z,9.52
2023-01-12T10:46:42.687Z,8.65
2023-01-12T10:49:24.762Z,8.40
2023-01-12T10:52:14.679Z,6.50
2023-01-12T10:54:49.714Z,8.18
2023-01-12T10:57:23.568Z,14.63
2023-01-12T10:59:53.588Z,10.77
2023-01-12T11:02:20.917Z,8.57
2023-01-12T11:04:55.202Z,7.18
2023-01-12T11:07:36.581Z,4.75
2023-01-12T11:12:59.681Z,4.05
2023-01-12T11:15:28.811Z,4.55
2023-01-12T11:18:19.232Z,3.15
2023-01-12T11:21:01.292Z,3.80
2023-01-12T11:23:34.330Z,5.25
2023-01-12T11:26:03.318Z,8.10
2023-01-12T11:28:42.358Z,6.95
2023-01-12T11:31:16.907Z,5.63
2023-01-12T11:33:51.912Z,4.03
2023-01-12T11:36:24.349Z,5.88
2023-01-12T11:38:58.527Z,5.95
2023-01-12T11:42:09.534Z,2.50
2023-01-12T11:45:02.391Z,2.22
2023-01-12T11:47:42.000Z,3.25
2023-01-12T11:50:12.080Z,2.45
2023-01-12T11:52:39.602Z,2.90
2023-01-12T11:55:14.059Z,4.65
2023-01-12T11:58:06.616Z,3.20
2023-01-12T12:01:01.862Z,3.75
2023-01-12T12:03:56.765Z,2.38
2023-01-12T12:06:42.203Z,1.75
2023-01-12T12:09:19.803Z,3.33
2023-01-12T12:12:24.138Z,2.00
2023-01-12T12:15:26.494Z,2.53
2023-01-12T12:18:15.904Z,2.30
2023-01-12T12:20:58.189Z,2.45
2023-01-12T12:23:43.220Z,2.03
2023-01-12T12:26:32.619Z,1.23
2023-01-12T12:29:13.609Z,2.17
2023-01-12T12:31:40.571Z,2.00
2023-01-12T12:34:13.407Z,1.70
2023-01-12T12:36:46.432Z,2.10
2023-01-12T12:39:46.712Z,15.15
2023-01-12T12:42:56.522Z,9.10
2023-01-12T12:45:47.183Z,8.70
2023-01-12T12:48:49.741Z,1.95
2023-01-12T12:51:17.290Z,1.70
2023-01-12T12:53:49.808Z,2.60
2023-01-12T12:56:20.493Z,2.42
2023-01-12T12:58:54.673Z,2.35
2023-01-12T13:01:25.719Z,1.60
2023-01-12T13:03:54.928Z,2.70
2023-01-12T13:06:44.865Z,2.45
2023-01-12T13:09:11.727Z,3.60
2023-01-12T13:12:09.327Z,3.90
2023-01-12T13:14:39.274Z,4.43
2023-01-12T13:17:21.388Z,5.45
2023-01-12T13:20:24.465Z,5.45
2023-01-12T13:22:52.536Z,5.53
2023-01-12T13:25:26.581Z,6.15
2023-01-12T13:28:02.293Z,16.00
2023-01-12T13:30:29.261Z,7.25
2023-01-12T13:32:59.352Z,9.93
2023-01-12T13:35:35.281Z,7.53
2023-01-12T13:38:23.835Z,5.00
2023-01-12T13:40:56.054Z,4.43
2023-01-12T13:43:23.152Z,6.78
2023-01-12T13:46:03.996Z,8.10
2023-01-12T13:48:34.667Z,7.60
2023-01-12T13:51:27.193Z,4.18
2023-01-12T13:54:10.589Z,3.33
2023-01-12T13:56:39.348Z,3.67
2023-01-12T13:59:08.137Z,4.18
2023-01-12T14:01:41.713Z,4.50
2023-01-12T14:04:22.883Z,2.83
2023-01-12T14:06:58.898Z,3.50
2023-01-12T14:09:44.038Z,2.60
2023-01-12T14:12:23.502Z,2.63
2023-01-12T14:15:38.263Z,6.85
2023-01-12T14:18:17.627Z,2.90
2023-01-12T14:20:59.388Z,3.33
2023-01-12T14:23:26.282Z,3.03
2023-01-12T14:26:16.515Z,3.40
2023-01-12T14:28:50.563Z,3.88
2023-01-12T14:31:23.748Z,6.43
2023-01-12T14:33:57.364Z,8.38
2023-01-12T14:36:34.707Z,12.38
2023-01-12T14:39:07.583Z,14.95
2023-01-12T14:41:53.071Z,16.45
2023-01-12T14:44:44.552Z,29.30
2023-01-12T14:47:26.951Z,50.97
2023-01-12T14:49:54.625Z,40.38
2023-01-12T14:52:30.824Z,44.55
2023-01-12T14:55:26.705Z,25.02
2023-01-12T14:57:57.576Z,45.10
2023-01-12T15:00:30.808Z,29.67
2023-01-12T15:03:04.981Z,24.23
2023-01-12T15:05:34.501Z,23.33
2023-01-12T15:08:22.472Z,12.48
2023-01-12T15:11:05.419Z,14.32
2023-01-12T15:13:34.602Z,12.82
2023-01-12T15:16:21.395Z,13.80
2023-01-12T15:19:07.562Z,26.17
2023-01-12T15:21:54.487Z,18.00
2023-01-12T15:24:52.267Z,11.05
2023-01-12T15:27:22.630Z,9.77
2023-01-12T15:29:49.531Z,11.55
2023-01-12T15:32:45.443Z,12.30
2023-01-12T15:35:23.830Z,12.95
2023-01-12T15:37:56.079Z,15.77
2023-01-12T15:40:24.679Z,12.68
2023-01-12T15:42:53.384Z,13.23
2023-01-12T15:45:47.666Z,12.80
2023-01-12T15:48:14.775Z,14.95
2023-01-12T15:50:44.229Z,17.23
2023-01-12T15:53:22.332Z,20.33
2023-01-12T15:55:49.802Z,16.42
2023-01-12T15:58:17.113Z,17.27
2023-01-12T16:00:45.335Z,16.50
2023-01-12T16:03:28.939Z,17.33
2023-01-12T16:06:00.676Z,6.05
2023-01-12T16:08:27.832Z,7.85
2023-01-12T16:11:12.144Z,8.52
2023-01-12T16:13:40.088Z,12.68
2023-01-12T16:16:08.530Z,19.10
2023-01-12T16:18:36.147Z,22.33
2023-01-12T16:21:06.935Z,19.35
2023-01-12T16:23:34.668Z,19.65
2023-01-12T16:26:02.283Z,22.48
2023-01-12T16:28:29.753Z,20.52
2023-01-12T16:30:56.910Z,27.27
2023-01-12T16:33:26.418Z,24.25
2023-01-12T16:35:55.707Z,22.08
2023-01-12T16:38:22.714Z,27.23
2023-01-12T16:40:51.287Z,26.23
2023-01-12T16:43:21.518Z,30.27
2023-01-12T16:48:35.836Z,23.00
2023-01-12T16:51:02.626Z,23.50
2023-01-12T16:53:29.544Z,25.55
2023-01-12T16:56:03.477Z,26.15
2023-01-12T16:58:30.336Z,26.35
2023-01-12T17:00:59.438Z,26.63
2023-01-12T17:03:27.034Z,24.15
2023-01-12T17:05:54.585Z,27.17
2023-01-12T17:08:21.630Z,35.55
2023-01-12T17:10:48.652Z,34.03
2023-01-12T17:13:15.609Z,32.35
2023-01-12T17:15:42.550Z,25.75
2023-01-12T17:18:09.626Z,24.58
2023-01-12T17:20:36.664Z,21.25
2023-01-12T17:23:03.755Z,22.40
2023-01-12T17:25:30.962Z,24.02
2023-01-12T17:27:57.961Z,23.88
2023-01-12T17:30:24.889Z,23.40
2023-01-12T17:33:26.968Z,22.20
2023-01-12T17:36:01.520Z,21.50
2023-01-12T17:38:28.786Z,18.50
2023-01-12T17:40:59.900Z,16.67
2023-01-12T17:43:27.051Z,11.00
2023-01-12T17:45:54.025Z,11.50
2023-01-12T17:48:21.691Z,12.90
2023-01-12T17:50:48.936Z,13.93
2023-01-12T17:53:18.099Z,15.23
2023-01-12T17:55:48.794Z,13.50
2023-01-12T17:58:18.650Z,11.90
2023-01-12T18:00:45.640Z,14.35
2023-01-12T18:03:12.595Z,14.18
2023-01-12T18:05:42.400Z,13.65
2023-01-12T18:08:09.580Z,14.93
2023-01-12T18:10:36.502Z,14.65
2023-01-12T18:13:03.442Z,17.25
2023-01-12T18:15:30.549Z,15.68
2023-01-12T18:17:57.595Z,18.15
2023-01-12T18:20:28.115Z,21.77
2023-01-12T18:22:55.336Z,20.27
2023-01-12T18:25:22.653Z,18.80
2023-01-12T18:27:49.899Z,17.65
2023-01-12T18:30:17.237Z,19.50
2023-01-12T18:32:45.411Z,22.45
2023-01-12T18:35:16.025Z,15.77
2023-01-12T18:37:42.904Z,17.05
2023-01-12T18:40:11.332Z,19.02
2023-01-12T18:42:50.194Z,19.02
2023-01-12T18:45:26.660Z,17.55
2023-01-12T18:48:21.484Z,18.10
2023-01-12T18:51:20.691Z,19.23
2023-01-12T18:54:08.397Z,17.23
2023-01-12T18:56:37.137Z,17.83
2023-01-12T18:59:04.726Z,17.70
2023-01-12T19:01:32.290Z,19.00
2023-01-12T19:03:59.604Z,16.67
2023-01-12T19:06:40.154Z,15.27
2023-01-12T19:09:26.048Z,17.45
2023-01-12T19:11:53.671Z,16.52
2023-01-12T19:14:39.298Z,16.52
2023-01-12T19:17:40.454Z,18.25
2023-01-12T19:20:18.896Z,40.70
2023-01-12T19:23:06.107Z,63.90
2023-01-12T19:25:52.228Z,33.20
2023-01-12T19:28:39.355Z,30.90
2023-01-12T19:31:11.200Z,25.38
2023-01-12T19:33:39.798Z,27.67
2023-01-12T19:36:14.190Z,26.23
2023-01-12T19:38:44.819Z,23.48
2023-01-12T19:41:34.949Z,20.80
2023-01-12T19:44:06.326Z,19.50
2023-01-12T19:46:33.491Z,19.33
2023-01-12T19:49:03.942Z,21.20
2023-01-12T19:51:31.096Z,19.40
2023-01-12T19:53:58.295Z,22.50
2023-01-12T19:56:25.527Z,20.20
2023-01-12T19:58:52.936Z,22.88
2023-01-12T20:01:23.980Z,22.17
2023-01-12T20:03:51.171Z,19.92
2023-01-12T20:06:18.395Z,18.98
2023-01-12T20:08:45.789Z,19.85
2023-01-12T20:11:13.116Z,20.75
2023-01-12T20:14:15.883Z,22.05
2023-01-12T20:16:45.243Z,21.73
2023-01-12T20:19:13.888Z,22.38
2023-01-12T20:21:41.326Z,19.77
2023-01-12T20:24:08.891Z,19.92
2023-01-12T20:26:38.284Z,24.02
2023-01-12T20:29:06.560Z,26.58
2023-01-12T20:31:34.006Z,16.90
2023-01-12T20:34:02.175Z,18.08
2023-01-12T20:36:32.005Z,18.27
2023-01-12T20:38:59.518Z,17.10
2023-01-12T20:41:26.587Z,16.52
2023-01-12T20:43:53.513Z,18.38
2023-01-12T20:46:20.731Z,19.10
2023-01-12T20:48:47.657Z,18.30
2023-01-12T20:51:16.069Z,16.80
2023-01-12T20:53:43.163Z,15.75
2023-01-12T20:56:10.392Z,16.73
2023-01-12T20:58:37.440Z,13.90
2023-01-12T21:01:10.348Z,13.27
2023-01-12T21:03:38.430Z,14.88
2023-01-12T21:06:20.322Z,16.40
2023-01-12T21:08:55.580Z,18.70
2023-01-12T21:11:22.638Z,20.90
2023-01-12T21:13:49.716Z,19.92
2023-01-12T21:16:18.997Z,14.88
2023-01-12T21:18:46.689Z,12.82
2023-01-12T21:21:13.571Z,13.00
2023-01-12T21:23:40.500Z,11.40
2023-01-12T21:26:08.897Z,10.85
2023-01-12T21:28:40.467Z,10.82
2023-01-12T21:31:09.482Z,11.93
2023-01-12T21:33:36.972Z,16.45
2023-01-12T21:36:04.065Z,16.00
2023-01-12T21:38:31.102Z,10.02
2023-01-12T21:41:02.922Z,10.95
2023-01-12T21:43:30.854Z,12.25
2023-01-12T21:46:05.514Z,12.20
2023-01-12T21:48:32.778Z,11.63
2023-01-12T21:51:07.597Z,14.65
2023-01-12T21:53:35.774Z,15.02
2023-01-12T21:56:05.119Z,10.82
2023-01-12T21:58:34.375Z,11.15
2023-01-12T22:01:14.091Z,11.15
2023-01-12T22:03:41.767Z,11.02
2023-01-12T22:06:11.465Z,11.68
2023-01-12T22:08:40.663Z,11.90
2023-01-12T22:11:13.269Z,11.30
2023-01-12T22:13:40.832Z,14.05
2023-01-12T22:16:10.719Z,12.13
2023-01-12T22:18:38.943Z,13.48
2023-01-12T22:21:09.314Z,11.98
2023-01-12T22:23:37.529Z,12.85
2023-01-12T22:26:10.359Z,11.68
2023-01-12T22:28:39.566Z,11.23
2023-01-12T22:31:22.347Z,11.52
2023-01-12T22:33:58.745Z,11.88
2023-01-12T22:36:25.767Z,12.65
2023-01-12T22:38:52.764Z,13.98
2023-01-12T22:41:22.094Z,13.32
2023-01-12T22:43:49.887Z,12.43
2023-01-12T22:46:20.512Z,11.20
2023-01-12T22:48:50.002Z,10.85
2023-01-12T22:51:18.938Z,8.55
2023-01-12T22:53:46.183Z,10.38
2023-01-12T22:56:13.345Z,10.20
2023-01-12T22:58:40.955Z,9.73
2023-01-12T23:01:09.762Z,9.60
2023-01-12T23:03:37.449Z,10.55
2023-01-12T23:06:05.398Z,10.60
2023-01-12T23:08:32.620Z,9.85
2023-01-12T23:11:03.976Z,9.23
2023-01-12T23:13:31.106Z,8.13
2023-01-12T23:16:03.031Z,9.25
2023-01-12T23:18:31.747Z,9.13
2023-01-12T23:21:10.960Z,9.93
2023-01-12T23:23:38.755Z,10.68
2023-01-12T23:26:09.123Z,10.38
2023-01-12T23:28:39.026Z,11.88
2023-01-12T23:31:08.689Z,11.55
2023-01-12T23:33:37.532Z,11.20
2023-01-12T23:36:06.817Z,11.60
2023-01-12T23:38:34.446Z,11.70
2023-01-12T23:41:18.449Z,9.80
2023-01-12T23:43:47.612Z,9.25
2023-01-12T23:46:17.155Z,7.97
2023-01-12T23:48:44.531Z,8.07
2023-01-12T23:51:11.393Z,8.80
2023-01-12T23:53:38.265Z,7.57
2023-01-12T23:56:20.379Z,7.57
2023-01-12T23:58:51.932Z,8.30
